Time,TemperatureF,DewpointF,PressureIn,WindDirection,WindDirectionDegrees,WindSpeedMPH,WindSpeedGustMPH,Humidity,HourlyPrecipIn,Conditions,Clouds,dailyrainin,SoftwareType,DateUTC
2013-03-27 00:02:00,34.4,30.0,29.94,West,261,7.0,-999.0,83,-99.99,,,0.00,weatherlink.com 1.10,2013-03-27 04:02:00,
2013-03-27 00:17:00,34.4,30.0,29.94,SW,236,2.0,-999.0,84,-99.99,,,0.00,weatherlink.com 1.10,2013-03-27 04:17:00,
2013-03-27 00:32:00,34.2,30.0,29.94,SW,234,1.0,-999.0,84,-99.99,,,0.00,weatherlink.com 1.10,2013-03-27 04:32:00,
2013-03-27 00:47:00,33.9,30.0,29.94,WSW,250,2.0,-999.0,84,-99.99,,,0.00,weatherlink.com 1.10,2013-03-27 04:47:00,
2013-03-27 01:02:00,33.7,29.0,29.94,SW,233,1.0,-999.0,84,-99.99,,,0.00,weatherlink.com 1.10,2013-03-27 05:02:00,
2013-03-27 01:17:00,33.5,29.0,29.94,SW,232,6.0,-999.0,83,-99.99,,,0.00,weatherlink.com 1.10,2013-03-27 05:17:00,
2013-03-27 01:32:00,33.4,29.0,29.94,WSW,238,2.0,-999.0,83,-99.99,,,0.00,weatherlink.com 1.10,2013-03-27 05:32:00,
2013-03-27 01:47:00,33.2,28.0,29.94,West,268,3.0,-999.0,82,-99.99,,,0.00,weatherlink.com 1.10,2013-03-27 05:47:00,
2013-03-27 02:02:00,33.1,28.0,29.94,WSW,246,1.0,-999.0,82,-99.99,,,0.00,weatherlink.com 1.10,2013-03-27 06:02:00,
2013-03-27 02:17:00,32.8,28.0,29.94,SSW,200,7.0,-999.0,81,-99.99,,,0.00,weatherlink.com 1.10,2013-03-27 06:17:00,
2013-03-27 02:32:00,32.6,27.0,29.93,SSW,213,1.0,-999.0,81,-99.99,,,0.00,weatherlink.com 1.10,2013-03-27 06:32:00,
2013-03-27 02:47:00,32.3,27.0,29.93,WSW,238,4.0,-999.0,81,-99.99,,,0.00,weatherlink.com 1.10,2013-03-27 06:47:00,
2013-03-27 03:02:00,31.9,27.0,29.93,SW,226,2.0,-999.0,82,-99.99,,,0.00,weatherlink.com 1.10,2013-03-27 07:02:00,
2013-03-27 03:17:00,31.6,27.0,29.93,WSW,258,3.0,-999.0,82,-99.99,,,0.00,weatherlink.com 1.10,2013-03-27 07:17:00,
2013-03-27 03:32:00,31.4,27.0,29.93,WSW,245,2.0,-999.0,82,-99.99,,,0.00,weatherlink.com 1.10,2013-03-27 07:32:00,
2013-03-27 03:47:00,31.3,27.0,29.93,SW,236,4.0,-999.0,83,-99.99,,,0.00,weatherlink.com 1.10,2013-03-27 07:47:00,
2013-03-27 04:02:00,31.1,27.0,29.93,West,268,4.0,-999.0,83,-99.99,,,0.00,weatherlink.com 1.10,2013-03-27 08:02:00,
2013-03-27 04:16:00,31.0,26.0,29.92,SW,217,2.0,-999.0,83,-99.99,,,0.00,weatherlink.com 1.10,2013-03-27 08:16:00,
2013-03-27 04:31:00,30.8,26.0,29.93,WSW,256,7.0,-999.0,83,-99.99,,,0.00,weatherlink.com 1.10,2013-03-27 08:31:00,
2013-03-27 04:47:00,30.7,26.0,29.92,SW,220,3.0,-999.0,83,-99.99,,,0.00,weatherlink.com 1.10,2013-03-27 08:47:00,
2013-03-27 05:02:00,30.8,27.0,29.92,WSW,241,5.0,-999.0,84,-99.99,,,0.00,weatherlink.com 1.10,2013-03-27 09:02:00,
2013-03-27 05:17:00,30.9,27.0,29.93,WSW,238,3.0,-999.0,84,-99.99,,,0.00,weatherlink.com 1.10,2013-03-27 09:17:00,
2013-03-27 05:32:00,30.9,27.0,29.93,WSW,238,5.0,-999.0,84,-99.99,,,0.00,weatherlink.com 1.10,2013-03-27 09:32:00,
2013-03-27 05:47:00,30.8,27.0,29.93,SW,227,6.0,-999.0,85,-99.99,,,0.00,weatherlink.com 1.10,2013-03-27 09:47:00,
2013-03-27 06:02:00,30.7,27.0,29.94,SW,227,3.0,-999.0,85,-99.99,,,0.00,weatherlink.com 1.10,2013-03-27 10:02:00,
2013-03-27 06:17:00,30.7,27.0,29.94,WSW,241,2.0,-999.0,86,-99.99,,,0.00,weatherlink.com 1.10,2013-03-27 10:17:00,
2013-03-27 06:32:00,30.9,28.0,29.94,West,276,3.0,-999.0,87,-99.99,,,0.00,weatherlink.com 1.10,2013-03-27 10:32:00,
2013-03-27 07:01:00,30.8,27.0,29.95,SW,225,3.0,-999.0,87,-99.99,,,0.00,weatherlink.com 1.10,2013-03-27 11:01:00,
2013-03-27 07:16:00,30.9,28.0,29.95,WSW,240,4.0,-999.0,88,-99.99,,,0.00,weatherlink.com 1.10,2013-03-27 11:16:00,
2013-03-27 08:01:00,31.4,29.0,29.96,SW,234,4.0,-999.0,89,-99.99,,,0.00,weatherlink.com 1.10,2013-03-27 12:01:00,
2013-03-27 08:16:00,31.5,29.0,29.96,WSW,257,3.0,-999.0,89,-99.99,,,0.00,weatherlink.com 1.10,2013-03-27 12:16:00,
2013-03-27 08:31:00,31.9,29.0,29.97,WSW,246,14.0,-999.0,89,-99.99,,,0.00,weatherlink.com 1.10,2013-03-27 12:31:00,
2013-03-27 08:46:00,32.9,30.0,29.97,SSW,200,4.0,-999.0,88,-99.99,,,0.00,weatherlink.com 1.10,2013-03-27 12:46:00,
2013-03-27 09:01:00,34.1,31.0,29.98,WSW,242,3.0,-999.0,87,-99.99,,,0.00,weatherlink.com 1.10,2013-03-27 13:01:00,
2013-03-27 09:31:00,35.4,31.0,29.98,West,264,11.0,-999.0,83,-99.99,,,0.00,weatherlink.com 1.10,2013-03-27 13:31:00,
2013-03-27 09:46:00,36.1,31.0,29.98,WNW,301,3.0,-999.0,82,-99.99,,,0.00,weatherlink.com 1.10,2013-03-27 13:46:00,
2013-03-27 10:01:00,36.4,31.0,29.98,SW,221,3.0,-999.0,81,-99.99,,,0.00,weatherlink.com 1.10,2013-03-27 14:01:00,
2013-03-27 10:16:00,36.6,31.0,29.98,SW,233,6.0,-999.0,80,-99.99,,,0.00,weatherlink.com 1.10,2013-03-27 14:16:00,
2013-03-27 10:31:00,36.8,31.0,29.99,WSW,241,1.0,-999.0,79,-99.99,,,0.00,weatherlink.com 1.10,2013-03-27 14:31:00,
2013-03-27 10:46:00,37.7,32.0,29.99,West,260,4.0,-999.0,79,-99.99,,,0.00,weatherlink.com 1.10,2013-03-27 14:46:00,
2013-03-27 11:01:00,38.2,32.0,29.99,WSW,252,7.0,-999.0,78,-99.99,,,0.00,weatherlink.com 1.10,2013-03-27 15:01:00,
2013-03-27 11:16:00,38.0,32.0,29.99,SSW,210,3.0,-999.0,78,-99.99,,,0.00,weatherlink.com 1.10,2013-03-27 15:16:00,
2013-03-27 11:31:00,38.7,32.0,29.98,SSW,200,5.0,-999.0,77,-99.99,,,0.00,weatherlink.com 1.10,2013-03-27 15:31:00,
2013-03-27 12:01:00,41.0,33.0,29.99,SW,235,6.0,-999.0,72,-99.99,,,0.00,weatherlink.com 1.10,2013-03-27 16:01:00,
2013-03-27 12:16:00,42.1,33.0,29.99,SW,225,5.0,-999.0,69,-99.99,,,0.00,weatherlink.com 1.10,2013-03-27 16:16:00,
2013-03-27 12:31:00,43.0,33.0,29.99,WSW,252,12.0,-999.0,67,-99.99,,,0.00,weatherlink.com 1.10,2013-03-27 16:31:00,
2013-03-27 12:46:00,43.3,33.0,29.99,West,275,3.0,-999.0,68,-99.99,,,0.00,weatherlink.com 1.10,2013-03-27 16:46:00,
2013-03-27 13:01:00,43.8,34.0,29.99,SW,225,2.0,-999.0,68,-99.99,,,0.00,weatherlink.com 1.10,2013-03-27 17:01:00,
2013-03-27 13:16:00,43.9,34.0,29.99,WSW,250,3.0,-999.0,67,-99.99,,,0.00,weatherlink.com 1.10,2013-03-27 17:16:00,
2013-03-27 13:31:00,44.3,33.0,29.98,SW,214,4.0,-999.0,65,-99.99,,,0.00,weatherlink.com 1.10,2013-03-27 17:31:00,
2013-03-27 13:46:00,43.6,33.0,29.99,SW,234,6.0,-999.0,67,-99.99,,,0.00,weatherlink.com 1.10,2013-03-27 17:46:00,
2013-03-27 14:01:00,43.7,34.0,29.99,SW,234,3.0,-999.0,68,-99.99,,,0.00,weatherlink.com 1.10,2013-03-27 18:01:00,
2013-03-27 14:16:00,42.0,34.0,30.00,WSW,238,5.0,-999.0,74,-99.99,,,0.00,weatherlink.com 1.10,2013-03-27 18:16:00,
2013-03-27 14:31:00,41.8,34.0,30.00,WSW,246,4.0,-999.0,75,-99.99,,,0.00,weatherlink.com 1.10,2013-03-27 18:31:00,
2013-03-27 14:46:00,40.3,35.0,30.00,WSW,250,2.0,-999.0,81,-99.99,,,0.00,weatherlink.com 1.10,2013-03-27 18:46:00,
2013-03-27 15:01:00,38.5,35.0,30.00,SW,230,9.0,-999.0,86,-99.99,,,0.00,weatherlink.com 1.10,2013-03-27 19:01:00,
2013-03-27 15:16:00,37.5,34.0,30.00,WSW,242,10.0,-999.0,87,-99.99,,,0.00,weatherlink.com 1.10,2013-03-27 19:16:00,
2013-03-27 15:31:00,36.3,33.0,30.00,SW,219,6.0,-999.0,88,-99.99,,,0.00,weatherlink.com 1.10,2013-03-27 19:31:00,
2013-03-27 15:46:00,35.9,33.0,30.00,WSW,244,5.0,-999.0,90,-99.99,,,0.00,weatherlink.com 1.10,2013-03-27 19:46:00,
2013-03-27 16:01:00,36.8,35.0,30.00,SW,227,8.0,-999.0,91,-99.99,,,0.00,weatherlink.com 1.10,2013-03-27 20:01:00,
2013-03-27 16:16:00,37.4,35.0,30.00,NW,311,4.0,-999.0,90,-99.99,,,0.00,weatherlink.com 1.10,2013-03-27 20:16:00,
2013-03-27 16:32:00,37.3,34.0,30.00,SW,222,1.0,-999.0,87,-99.99,,,0.00,weatherlink.com 1.10,2013-03-27 20:32:00,
2013-03-27 16:46:00,36.4,33.0,30.01,SW,232,7.0,-999.0,87,-99.99,,,0.00,weatherlink.com 1.10,2013-03-27 20:46:00,
2013-03-27 17:01:00,35.6,33.0,30.01,WSW,248,5.0,-999.0,89,-99.99,,,0.00,weatherlink.com 1.10,2013-03-27 21:01:00,
2013-03-27 17:16:00,35.4,33.0,30.01,WNW,288,6.0,-999.0,90,-99.99,,,0.00,weatherlink.com 1.10,2013-03-27 21:16:00,
2013-03-27 17:31:00,35.0,32.0,30.02,West,259,3.0,-999.0,90,-99.99,,,0.00,weatherlink.com 1.10,2013-03-27 21:31:00,
2013-03-27 17:47:00,34.6,32.0,30.02,SSW,210,3.0,-999.0,90,-99.99,,,0.00,weatherlink.com 1.10,2013-03-27 21:47:00,
2013-03-27 18:01:00,34.6,32.0,30.02,WSW,242,5.0,-999.0,91,-99.99,,,0.00,weatherlink.com 1.10,2013-03-27 22:01:00,
2013-03-27 18:16:00,34.5,32.0,30.03,SW,234,6.0,-999.0,91,-99.99,,,0.00,weatherlink.com 1.10,2013-03-27 22:16:00,
2013-03-27 18:31:00,34.1,32.0,30.03,West,273,3.0,-999.0,91,-99.99,,,0.01,weatherlink.com 1.10,2013-03-27 22:31:00,
2013-03-27 18:47:00,33.4,31.0,30.04,SW,236,4.0,-999.0,91,-99.99,,,0.01,weatherlink.com 1.10,2013-03-27 22:47:00,
2013-03-27 19:16:00,32.9,31.0,30.04,SW,230,4.0,-999.0,92,-99.99,,,0.02,weatherlink.com 1.10,2013-03-27 23:16:00,
2013-03-27 19:31:00,32.7,31.0,30.04,WSW,245,3.0,-999.0,92,-99.99,,,0.02,weatherlink.com 1.10,2013-03-27 23:31:00,
2013-03-27 19:46:00,32.7,31.0,30.04,WSW,247,12.0,-999.0,93,-99.99,,,0.02,weatherlink.com 1.10,2013-03-27 23:46:00,
2013-03-27 20:01:00,32.7,31.0,30.04,SW,214,6.0,-999.0,93,-99.99,,,0.02,weatherlink.com 1.10,2013-03-28 00:01:00,
2013-03-27 20:16:00,32.7,31.0,30.05,WSW,246,2.0,-999.0,93,-99.99,,,0.02,weatherlink.com 1.10,2013-03-28 00:16:00,
2013-03-27 20:31:00,32.7,31.0,30.05,WSW,244,2.0,-999.0,93,-99.99,,,0.02,weatherlink.com 1.10,2013-03-28 00:31:00,
2013-03-27 20:46:00,32.8,31.0,30.05,WSW,242,10.0,-999.0,93,-99.99,,,0.02,weatherlink.com 1.10,2013-03-28 00:46:00,
2013-03-27 21:02:00,32.8,31.0,30.05,SW,224,4.0,-999.0,94,-99.99,,,0.02,weatherlink.com 1.10,2013-03-28 01:02:00,
2013-03-27 21:16:00,32.9,31.0,30.05,West,264,0.0,-999.0,94,-99.99,,,0.02,weatherlink.com 1.10,2013-03-28 01:16:00,
2013-03-27 21:31:00,32.9,31.0,30.05,West,259,0.0,-999.0,94,-99.99,,,0.02,weatherlink.com 1.10,2013-03-28 01:31:00,
2013-03-27 21:46:00,33.0,32.0,30.06,WSW,254,3.0,-999.0,94,-99.99,,,0.02,weatherlink.com 1.10,2013-03-28 01:46:00,
2013-03-27 22:01:00,33.0,32.0,30.06,West,259,0.0,-999.0,94,-99.99,,,0.02,weatherlink.com 1.10,2013-03-28 02:01:00,
2013-03-27 22:16:00,33.0,32.0,30.07,WSW,244,2.0,-999.0,94,-99.99,,,0.03,weatherlink.com 1.10,2013-03-28 02:16:00,
2013-03-27 22:31:00,32.9,31.0,30.07,West,279,0.0,-999.0,94,-99.99,,,0.03,weatherlink.com 1.10,2013-03-28 02:31:00,
2013-03-27 22:47:00,32.7,31.0,30.06,WNW,301,0.0,-999.0,94,-99.99,,,0.03,weatherlink.com 1.10,2013-03-28 02:47:00,
2013-03-27 23:02:00,32.7,31.0,30.06,WSW,245,0.0,-999.0,94,-99.99,,,0.04,weatherlink.com 1.10,2013-03-28 03:02:00,
2013-03-27 23:16:00,32.6,31.0,30.06,WSW,245,0.0,-999.0,94,-99.99,,,0.05,weatherlink.com 1.10,2013-03-28 03:16:00,
2013-03-27 23:31:00,32.6,31.0,30.06,SW,219,4.0,-999.0,94,-99.99,,,0.05,weatherlink.com 1.10,2013-03-28 03:31:00,
2013-03-27 23:46:00,32.6,31.0,30.06,WSW,244,0.0,-999.0,94,-99.99,,,0.05,weatherlink.com 1.10,2013-03-28 03:46:00,